createdAt,value
2022-08-18T00:01:05.700Z,99755.63
2022-08-18T00:03:56.110Z,99758.19
2022-08-18T00:06:19.653Z,99758.19
2022-08-18T00:08:46.177Z,99752.09
2022-08-18T00:11:12.691Z,99747.22
2022-08-18T00:13:39.106Z,99752.78
2022-08-18T00:16:05.762Z,99756.78
2022-08-18T00:18:32.214Z,99761.34
2022-08-18T00:20:58.624Z,99754.03
2022-08-18T00:23:25.063Z,99750.56
2022-08-18T00:25:52.258Z,99756.19
2022-08-18T00:28:19.352Z,99754.09
2022-08-18T00:30:50.433Z,99753.38
2022-08-18T00:33:21.277Z,99753.22
2022-08-18T00:35:48.017Z,99750.09
2022-08-18T00:38:25.037Z,99757.94
2022-08-18T00:40:54.163Z,99757.94
2022-08-18T00:43:33.117Z,99753.75
2022-08-18T00:46:00.678Z,99754.06
2022-08-18T00:48:28.735Z,99761.53
2022-08-18T00:51:02.004Z,99758.56
2022-08-18T00:53:34.773Z,99761.69
2022-08-18T00:56:08.487Z,99774.88
2022-08-18T00:58:43.897Z,99778.41
2022-08-18T01:01:12.624Z,99785.22
2022-08-18T01:03:42.579Z,99794.69
2022-08-18T01:06:21.649Z,99807.69
2022-08-18T01:08:48.211Z,99802.31
2022-08-18T01:11:15.025Z,99804.22
2022-08-18T01:13:42.960Z,99806.00
2022-08-18T01:16:28.436Z,99806.22
2022-08-18T01:19:13.247Z,99803.19
2022-08-18T01:21:51.861Z,99803.06
2022-08-18T01:24:22.088Z,99805.63
2022-08-18T01:26:52.245Z,99794.06
2022-08-18T01:29:19.642Z,99788.19
2022-08-18T01:31:55.573Z,99789.06
2022-08-18T01:34:25.390Z,99789.53
2022-08-18T01:36:52.499Z,99791.59
2022-08-18T01:41:22.151Z,99787.50
2022-08-18T01:42:06.670Z,99797.03
2022-08-18T01:44:33.774Z,99790.09
2022-08-18T01:47:00.301Z,99792.22
2022-08-18T01:49:28.752Z,99783.94
2022-08-18T01:51:55.792Z,99776.91
2022-08-18T01:54:22.790Z,99783.19
2022-08-18T01:56:49.421Z,99785.34
2022-08-18T01:59:16.251Z,99778.19
2022-08-18T02:01:50.485Z,99776.75
2022-08-18T02:04:35.732Z,99766.75
2022-08-18T02:07:07.302Z,99760.13
2022-08-18T02:09:34.363Z,99756.91
2022-08-18T02:12:01.235Z,99762.69
2022-08-18T02:14:27.777Z,99759.63
2022-08-18T02:17:02.094Z,99762.94
2022-08-18T02:19:36.857Z,99741.50
2022-08-18T02:22:04.725Z,99754.78
2022-08-18T02:24:31.308Z,99757.13
2022-08-18T02:26:57.900Z,99762.47
2022-08-18T02:29:24.546Z,99767.88
2022-08-18T02:31:51.100Z,99771.94
2022-08-18T02:34:17.728Z,99780.94
2022-08-18T02:36:44.524Z,99780.38
2022-08-18T02:39:11.208Z,99779.78
2022-08-18T02:41:37.605Z,99776.22
2022-08-18T02:44:07.502Z,99789.97
2022-08-18T02:46:34.387Z,99780.38
2022-08-18T02:49:01.505Z,99785.09
2022-08-18T02:51:28.216Z,99779.22
2022-08-18T02:53:54.813Z,99772.81
2022-08-18T02:56:40.504Z,99788.78
2022-08-18T02:59:11.890Z,99785.47
2022-08-18T03:01:41.453Z,99786.22
2022-08-18T03:04:10.225Z,99789.50
2022-08-18T03:06:38.761Z,99788.41
2022-08-18T03:09:07.078Z,99784.94
2022-08-18T03:11:33.552Z,99787.97
2022-08-18T03:14:01.172Z,99780.72
2022-08-18T03:16:32.661Z,99783.84
2022-08-18T03:19:01.119Z,99783.25
2022-08-18T03:21:29.748Z,99782.06
2022-08-18T03:24:00.243Z,99787.41
2022-08-18T03:26:29.939Z,99774.50
2022-08-18T03:28:57.720Z,99776.31
2022-08-18T03:31:27.752Z,99775.13
2022-08-18T03:33:59.308Z,99776.03
2022-08-18T03:36:33.920Z,99778.34
2022-08-18T03:39:07.333Z,99774.06
2022-08-18T03:41:44.455Z,99770.56
2022-08-18T03:44:22.283Z,99768.88
2022-08-18T03:46:51.770Z,99772.19
2022-08-18T03:49:20.331Z,99769.16
2022-08-18T03:51:47.396Z,99761.25
2022-08-18T03:54:16.500Z,99764.72
2022-08-18T03:56:44.514Z,99766.59
2022-08-18T03:59:17.862Z,99769.84
2022-08-18T04:01:46.080Z,99769.19
2022-08-18T04:04:16.301Z,99768.88
2022-08-18T04:06:50.071Z,99770.00
2022-08-18T04:09:17.954Z,99765.59
2022-08-18T04:11:45.788Z,99771.78
2022-08-18T04:14:14.453Z,99771.50
2022-08-18T04:16:41.918Z,99775.22
2022-08-18T04:19:10.071Z,99764.81
2022-08-18T04:21:39.368Z,99769.66
2022-08-18T04:24:07.479Z,99777.78
2022-08-18T04:26:37.555Z,99769.97
2022-08-18T04:29:06.056Z,99773.88
2022-08-18T04:31:32.626Z,99771.47
2022-08-18T04:34:00.701Z,99770.75
2022-08-18T04:36:29.360Z,99764.53
2022-08-18T04:38:56.427Z,99776.75
2022-08-18T04:41:27.287Z,99779.53
2022-08-18T04:43:58.797Z,99786.56
2022-08-18T04:46:27.103Z,99789.59
2022-08-18T04:48:58.997Z,99790.59
2022-08-18T04:52:38.749Z,99788.56
2022-08-18T04:54:15.974Z,99787.03
2022-08-18T04:56:42.397Z,99784.19
2022-08-18T04:59:11.987Z,99788.56
2022-08-18T05:01:45.390Z,99793.69
2022-08-18T05:04:14.432Z,99790.47
2022-08-18T05:06:43.353Z,99798.72
2022-08-18T05:09:12.220Z,99802.94
2022-08-18T05:11:39.139Z,99813.50
2022-08-18T05:14:08.270Z,99809.34
2022-08-18T05:16:47.746Z,99814.50
2022-08-18T05:19:19.378Z,99819.91
2022-08-18T05:21:46.249Z,99826.78
2022-08-18T05:24:17.421Z,99825.78
2022-08-18T05:26:45.744Z,99829.88
2022-08-18T05:29:18.938Z,99823.84
2022-08-18T05:31:46.854Z,99818.78
2022-08-18T05:34:13.311Z,99822.84
2022-08-18T05:37:00.151Z,99821.63
2022-08-18T05:39:40.336Z,99811.84
2022-08-18T05:42:18.588Z,99824.63
2022-08-18T05:44:48.807Z,99823.78
2022-08-18T05:47:35.468Z,99833.16
2022-08-18T05:50:10.393Z,99834.84
2022-08-18T05:52:50.116Z,99832.50
2022-08-18T05:55:58.815Z,99826.88
2022-08-18T05:58:33.586Z,99834.31
2022-08-18T06:01:09.072Z,99835.69
2022-08-18T06:03:53.950Z,99836.69
2022-08-18T06:06:29.850Z,99834.06
2022-08-18T06:09:10.643Z,99838.25
2022-08-18T06:11:37.094Z,99830.41
2022-08-18T06:14:03.839Z,99841.44
2022-08-18T06:16:36.364Z,99839.41
2022-08-18T06:19:36.018Z,99828.91
2022-08-18T06:22:22.820Z,99828.50
2022-08-18T06:25:34.204Z,99820.94
2022-08-18T06:28:00.584Z,99824.88
2022-08-18T06:30:41.903Z,99826.22
2022-08-18T06:33:21.077Z,99835.00
2022-08-18T06:35:54.983Z,99832.63
2022-08-18T06:38:40.830Z,99829.50
2022-08-18T06:41:37.926Z,99827.13
2022-08-18T06:44:10.724Z,99818.81
2022-08-18T06:47:04.057Z,99823.13
2022-08-18T06:49:59.588Z,99822.00
2022-08-18T06:52:29.095Z,99823.41
2022-08-18T06:55:01.032Z,99830.69
2022-08-18T06:57:38.259Z,99825.78
2022-08-18T07:00:04.782Z,99827.56
2022-08-18T07:02:47.027Z,99833.66
2022-08-18T07:05:22.421Z,99835.00
2022-08-18T07:08:18.537Z,99838.16
2022-08-18T07:10:50.724Z,99835.63
2022-08-18T07:13:27.775Z,99826.84
2022-08-18T07:16:57.157Z,99833.69
2022-08-18T07:19:27.628Z,99836.63
2022-08-18T07:22:20.424Z,99831.22
2022-08-18T07:25:04.614Z,99831.69
2022-08-18T07:27:44.669Z,99839.75
2022-08-18T07:30:36.545Z,99838.47
2022-08-18T07:33:20.116Z,99837.63
2022-08-18T07:35:57.043Z,99841.25
2022-08-18T07:38:42.718Z,99842.75
2022-08-18T07:41:24.050Z,99840.53
2022-08-18T07:43:53.449Z,99853.13
2022-08-18T07:46:45.612Z,99856.06
2022-08-18T07:49:22.414Z,99865.78
2022-08-18T07:51:59.457Z,99863.63
2022-08-18T07:54:48.768Z,99869.66
2022-08-18T07:57:24.711Z,99865.78
2022-08-18T08:00:10.444Z,99871.63
2022-08-18T08:03:04.572Z,99867.94
2022-08-18T08:05:55.718Z,99880.50
2022-08-18T08:08:52.015Z,99880.28
2022-08-18T08:11:31.085Z,99875.41
2022-08-18T08:14:03.686Z,99886.59
2022-08-18T08:16:48.359Z,99890.34
2022-08-18T08:19:56.713Z,99880.13
2022-08-18T08:22:39.445Z,99887.34
2022-08-18T08:25:42.585Z,99888.94
2022-08-18T08:28:18.875Z,99886.53
2022-08-18T08:31:39.759Z,99886.94
2022-08-18T08:34:19.011Z,99880.38
2022-08-18T08:36:47.183Z,99885.09
2022-08-18T08:39:19.475Z,99880.09
2022-08-18T08:41:51.085Z,99876.63
2022-08-18T08:44:29.886Z,99884.53
2022-08-18T08:47:07.936Z,99887.94
2022-08-18T08:50:04.617Z,99884.53
2022-08-18T08:52:44.478Z,99885.22
2022-08-18T08:55:17.873Z,99883.06
2022-08-18T08:57:58.922Z,99881.34
2022-08-18T09:00:25.627Z,99893.34
2022-08-18T09:02:59.499Z,99897.25
2022-08-18T09:05:41.752Z,99899.09
2022-08-18T09:08:26.966Z,99894.81
2022-08-18T09:11:15.084Z,99899.81
2022-08-18T09:14:08.377Z,99897.53
2022-08-18T09:16:49.384Z,99906.69
2022-08-18T09:19:36.034Z,99911.41
2022-08-18T09:22:29.848Z,99910.56
2022-08-18T09:24:57.454Z,99900.97
2022-08-18T09:27:53.774Z,99898.25
2022-08-18T09:30:47.869Z,99908.69
2022-08-18T09:33:40.523Z,99901.66
2022-08-18T09:36:28.644Z,99903.13
2022-08-18T09:40:12.772Z,99900.25
2022-08-18T09:45:34.322Z,99904.84
2022-08-18T09:48:08.782Z,99909.41
2022-08-18T09:50:52.948Z,99907.41
2022-08-18T09:53:53.840Z,99908.56
2022-08-18T09:56:54.179Z,99904.50
2022-08-18T09:59:34.541Z,99907.41
2022-08-18T10:02:06.297Z,99915.84
2022-08-18T10:04:51.080Z,99910.28
2022-08-18T10:07:19.586Z,99909.13
2022-08-18T10:10:00.803Z,99914.13
2022-08-18T10:12:37.720Z,99911.00
2022-08-18T10:18:14.594Z,99901.97
2022-08-18T10:20:54.026Z,99904.81
2022-08-18T10:24:29.788Z,99900.38
2022-08-18T10:26:54.633Z,99889.06
2022-08-18T10:29:27.793Z,99885.09
2022-08-18T10:31:57.492Z,99881.06
2022-08-18T10:37:43.414Z,99874.63
2022-08-18T10:40:10.038Z,99872.16
2022-08-18T10:42:53.845Z,99877.66
2022-08-18T10:45:30.509Z,99870.72
2022-08-18T10:48:17.274Z,99866.94
2022-08-18T10:51:22.943Z,99860.97
2022-08-18T10:54:19.592Z,99863.69
2022-08-18T10:57:05.961Z,99870.06
2022-08-18T10:59:47.768Z,99865.13
2022-08-18T11:05:45.211Z,99860.59
2022-08-18T11:08:20.088Z,99864.09
2022-08-18T11:11:32.726Z,99865.25
2022-08-18T11:13:37.273Z,99869.28
2022-08-18T11:16:14.328Z,99873.69
2022-08-18T11:18:49.092Z,99876.56
2022-08-18T11:21:42.572Z,99874.88
2022-08-18T11:27:29.714Z,99829.69
2022-08-18T11:30:01.453Z,99797.78
2022-08-18T11:32:32.501Z,99777.72
2022-08-18T11:35:07.633Z,99799.97
2022-08-18T11:37:53.330Z,99801.59
2022-08-18T11:43:17.215Z,99815.31
2022-08-18T11:45:57.300Z,99822.81
2022-08-18T11:51:17.539Z,99817.09
2022-08-18T11:53:55.589Z,99815.28
2022-08-18T11:56:38.583Z,99819.06
2022-08-18T11:59:06.769Z,99824.31
2022-08-18T12:01:40.923Z,99818.47
2022-08-18T12:04:16.592Z,99821.28
2022-08-18T12:06:59.937Z,99816.72
2022-08-18T12:12:28.401Z,99813.97
2022-08-18T12:15:17.607Z,99807.94
2022-08-18T12:17:52.723Z,99813.31
2022-08-18T12:20:21.582Z,99810.38
2022-08-18T12:22:49.778Z,99810.41
2022-08-18T12:25:24.682Z,99807.56
2022-08-18T12:27:52.187Z,99792.47
2022-08-18T12:30:19.182Z,99789.75
2022-08-18T12:35:32.660Z,99779.72
2022-08-18T12:38:11.069Z,99777.75
2022-08-18T12:40:40.858Z,99784.81
2022-08-18T12:43:07.566Z,99772.19
2022-08-18T12:45:34.449Z,99772.03
2022-08-18T12:48:04.719Z,99781.13
2022-08-18T12:50:39.112Z,99784.06
2022-08-18T12:53:10.650Z,99777.72
2022-08-18T12:55:45.904Z,99783.63
2022-08-18T12:58:12.802Z,99777.13
2022-08-18T13:00:40.831Z,99780.44
2022-08-18T13:03:07.899Z,99781.72
2022-08-18T13:05:37.349Z,99779.31
2022-08-18T13:08:05.796Z,99782.78
2022-08-18T13:10:42.822Z,99780.75
2022-08-18T13:13:14.668Z,99768.63
2022-08-18T13:15:51.756Z,99766.28
2022-08-18T13:18:27.246Z,99759.84
2022-08-18T13:20:55.221Z,99753.69
2022-08-18T13:23:24.974Z,99746.25
2022-08-18T13:25:52.181Z,99742.72
2022-08-18T13:28:30.250Z,99744.19
2022-08-18T13:30:57.248Z,99743.91
2022-08-18T13:33:56.106Z,99745.47
2022-08-18T13:36:11.952Z,99749.56
2022-08-18T13:38:40.403Z,99745.44
2022-08-18T13:41:15.858Z,99744.75
2022-08-18T13:43:44.423Z,99738.63
2022-08-18T13:46:15.506Z,99732.59
2022-08-18T13:48:42.875Z,99731.91
2022-08-18T13:51:17.200Z,99726.16
2022-08-18T13:53:57.455Z,99739.16
2022-08-18T13:56:31.440Z,99737.75
2022-08-18T13:58:58.240Z,99739.34
2022-08-18T14:01:44.831Z,99732.28
2022-08-18T14:04:14.837Z,99728.50
2022-08-18T14:06:46.843Z,99739.59
2022-08-18T14:09:20.000Z,99735.38
2022-08-18T14:11:54.976Z,99725.88
2022-08-18T14:14:21.762Z,99719.97
2022-08-18T14:16:48.273Z,99726.13
2022-08-18T14:19:33.364Z,99723.03
2022-08-18T14:22:18.736Z,99713.81
2022-08-18T14:25:03.511Z,99706.47
2022-08-18T14:27:34.971Z,99701.22
2022-08-18T14:30:10.833Z,99706.69
2022-08-18T14:32:49.042Z,99708.16
2022-08-18T14:35:28.554Z,99712.38
2022-08-18T14:38:01.600Z,99707.84
2022-08-18T14:40:29.826Z,99712.75
2022-08-18T14:42:57.155Z,99700.50
2022-08-18T14:45:31.698Z,99707.66
2022-08-18T14:48:01.693Z,99703.75
2022-08-18T14:50:29.441Z,99708.03
2022-08-18T14:52:56.992Z,99722.19
2022-08-18T14:55:26.812Z,99714.69
2022-08-18T14:57:53.647Z,99725.44
2022-08-18T15:00:22.705Z,99721.16
2022-08-18T15:02:49.835Z,99718.78
2022-08-18T15:05:19.704Z,99712.00
2022-08-18T15:07:51.018Z,99717.09
2022-08-18T15:10:19.981Z,99731.28
2022-08-18T15:12:50.770Z,99737.03
2022-08-18T15:15:18.508Z,99728.69
2022-08-18T15:17:45.373Z,99734.31
2022-08-18T15:20:18.942Z,99728.16
2022-08-18T15:23:04.647Z,99735.53
2022-08-18T15:25:44.663Z,99726.47
2022-08-18T15:28:21.382Z,99743.56
2022-08-18T15:30:51.716Z,99738.22
2022-08-18T15:33:23.555Z,99736.19
2022-08-18T15:35:51.334Z,99744.06
2022-08-18T15:38:21.029Z,99741.88
2022-08-18T15:40:52.936Z,99745.19
2022-08-18T15:43:25.342Z,99742.41
2022-08-18T15:45:57.899Z,99737.34
2022-08-18T15:48:26.415Z,99741.97
2022-08-18T15:50:53.255Z,99741.97
2022-08-18T15:53:25.456Z,99749.25
2022-08-18T15:55:56.439Z,99746.66
2022-08-18T15:58:26.655Z,99742.38
2022-08-18T16:00:53.569Z,99741.31
2022-08-18T16:03:21.183Z,99751.91
2022-08-18T16:05:53.085Z,99749.03
2022-08-18T16:08:21.678Z,99744.72
2022-08-18T16:10:48.624Z,99741.13
2022-08-18T16:13:15.052Z,99735.84
2022-08-18T16:15:46.514Z,99736.88
2022-08-18T16:18:13.654Z,99735.69
2022-08-18T16:20:41.087Z,99730.66
2022-08-18T16:23:07.538Z,99723.53
2022-08-18T16:25:34.054Z,99724.72
2022-08-18T16:28:01.192Z,99725.38
2022-08-18T16:30:29.057Z,99730.44
2022-08-18T16:33:01.225Z,99731.03
2022-08-18T16:35:27.982Z,99730.38
2022-08-18T16:37:54.762Z,99736.06
2022-08-18T16:40:21.164Z,99724.44
2022-08-18T16:42:48.762Z,99730.16
2022-08-18T16:45:20.837Z,99731.28
2022-08-18T16:47:47.513Z,99732.03
2022-08-18T16:50:18.112Z,99726.53
2022-08-18T16:52:44.823Z,99728.22
2022-08-18T16:55:12.346Z,99733.91
2022-08-18T16:57:58.559Z,99730.03
2022-08-18T17:00:44.747Z,99724.59
2022-08-18T17:03:30.582Z,99719.13
2022-08-18T17:06:00.797Z,99714.94
2022-08-18T17:08:27.465Z,99720.41
2022-08-18T17:10:54.951Z,99718.81
2022-08-18T17:13:21.378Z,99718.53
2022-08-18T17:15:50.245Z,99713.06
2022-08-18T17:18:17.155Z,99713.03
2022-08-18T17:20:43.598Z,99718.44
2022-08-18T17:23:10.099Z,99711.06
2022-08-18T17:25:36.931Z,99719.53
2022-08-18T17:28:05.262Z,99719.09
2022-08-18T17:30:45.451Z,99719.72
2022-08-18T17:33:21.043Z,99714.22
2022-08-18T17:35:47.809Z,99723.75
2022-08-18T17:38:38.591Z,99731.09
2022-08-18T17:41:06.115Z,99725.00
2022-08-18T17:43:36.111Z,99728.06
2022-08-18T17:46:26.447Z,99724.47
2022-08-18T17:49:17.723Z,99717.94
2022-08-18T17:51:52.630Z,99724.88
2022-08-18T17:54:42.003Z,99729.16
2022-08-18T17:57:12.724Z,99728.91
2022-08-18T17:59:53.912Z,99732.78
2022-08-18T18:02:30.299Z,99731.78
2022-08-18T18:05:00.502Z,99730.06
2022-08-18T18:07:52.808Z,99732.09
2022-08-18T18:10:34.095Z,99736.06
2022-08-18T18:13:32.253Z,99737.31
2022-08-18T18:16:19.970Z,99732.53
2022-08-18T18:18:56.471Z,99730.34
2022-08-18T18:22:00.548Z,99738.41
2022-08-18T18:24:15.231Z,99732.94
2022-08-18T18:26:48.058Z,99730.19
2022-08-18T18:29:19.668Z,99733.75
2022-08-18T18:31:58.339Z,99733.84
2022-08-18T18:34:44.024Z,99739.31
2022-08-18T18:37:29.808Z,99744.00
2022-08-18T18:40:06.737Z,99737.00
2022-08-18T18:42:35.979Z,99740.16
2022-08-18T18:45:09.305Z,99734.72
2022-08-18T18:47:55.957Z,99744.31
2022-08-18T18:51:10.982Z,99749.44
2022-08-18T18:54:10.665Z,99737.97
2022-08-18T18:56:50.412Z,99741.59
2022-08-18T18:59:59.150Z,99741.28
2022-08-18T19:02:36.147Z,99734.47
2022-08-18T19:05:31.026Z,99737.00
2022-08-18T19:08:03.766Z,99745.50
2022-08-18T19:10:58.620Z,99743.44
2022-08-18T19:13:33.074Z,99746.88
2022-08-18T19:16:09.614Z,99736.59
2022-08-18T19:18:45.517Z,99741.66
2022-08-18T19:22:04.371Z,99735.28
2022-08-18T19:24:22.629Z,99750.72
2022-08-18T19:26:52.254Z,99752.81
2022-08-18T19:29:32.668Z,99750.44
2022-08-18T19:32:05.644Z,99753.63
2022-08-18T19:34:38.061Z,99755.72
2022-08-18T19:37:40.319Z,99757.13
2022-08-18T19:40:20.767Z,99761.72
2022-08-18T19:42:58.567Z,99758.78
2022-08-18T19:45:33.325Z,99761.47
2022-08-18T19:48:18.509Z,99759.41
2022-08-18T19:50:59.698Z,99768.31
2022-08-18T19:53:26.043Z,99766.47
2022-08-18T19:56:10.667Z,99762.28
2022-08-18T19:59:04.952Z,99761.72
2022-08-18T20:01:52.893Z,99758.72
2022-08-18T20:04:22.102Z,99759.16
2022-08-18T20:07:22.584Z,99759.88
2022-08-18T20:09:54.333Z,99766.72
2022-08-18T20:12:24.011Z,99762.91
2022-08-18T20:15:23.030Z,99760.72
2022-08-18T20:17:58.608Z,99757.59
2022-08-18T20:20:36.050Z,99761.72
2022-08-18T20:23:30.337Z,99759.56
2022-08-18T20:25:56.895Z,99756.94
2022-08-18T20:28:36.778Z,99752.47
2022-08-18T20:31:06.055Z,99750.94
2022-08-18T20:33:37.955Z,99754.59
2022-08-18T20:36:28.881Z,99755.13
2022-08-18T20:38:58.583Z,99753.25
2022-08-18T20:41:43.603Z,99753.91
2022-08-18T20:44:21.840Z,99746.56
2022-08-18T20:47:29.783Z,99764.22
2022-08-18T20:50:34.002Z,99763.22
2022-08-18T20:53:26.910Z,99775.09
2022-08-18T20:56:32.103Z,99778.66
2022-08-18T20:59:09.230Z,99767.94
2022-08-18T21:01:37.108Z,99773.81
2022-08-18T21:04:05.820Z,99775.25
2022-08-18T21:06:37.349Z,99779.06
2022-08-18T21:09:04.729Z,99778.94
2022-08-18T21:11:33.949Z,99781.09
2022-08-18T21:14:04.364Z,99780.91
2022-08-18T21:16:39.152Z,99791.47
2022-08-18T21:19:24.046Z,99797.97
2022-08-18T21:22:00.606Z,99809.63
2022-08-18T21:24:40.851Z,99814.19
2022-08-18T21:27:30.275Z,99810.78
2022-08-18T21:30:01.235Z,99805.16
2022-08-18T21:32:34.590Z,99792.53
2022-08-18T21:35:09.993Z,99793.53
2022-08-18T21:37:40.975Z,99802.00
2022-08-18T21:40:08.112Z,99793.16
2022-08-18T21:42:44.574Z,99795.63
2022-08-18T21:45:17.621Z,99801.34
2022-08-18T21:47:58.761Z,99794.56
2022-08-18T21:50:34.011Z,99784.41
2022-08-18T21:53:07.777Z,99799.81
2022-08-18T21:55:42.290Z,99793.91
2022-08-18T21:58:18.004Z,99790.22
2022-08-18T22:01:06.365Z,99790.84
2022-08-18T22:03:35.091Z,99799.03
2022-08-18T22:06:32.700Z,99794.25
2022-08-18T22:09:23.315Z,99783.75
2022-08-18T22:12:36.724Z,99790.50
2022-08-18T22:15:12.038Z,99792.31
2022-08-18T22:17:51.690Z,99796.63
2022-08-18T22:20:43.289Z,99797.78
2022-08-18T22:23:31.499Z,99789.50
2022-08-18T22:26:16.317Z,99793.75
2022-08-18T22:29:01.685Z,99812.84
2022-08-18T22:31:32.477Z,99808.78
2022-08-18T22:34:05.077Z,99801.34
2022-08-18T22:36:36.160Z,99789.03
2022-08-18T22:39:04.524Z,99798.44
2022-08-18T22:41:35.564Z,99808.16
2022-08-18T22:44:03.858Z,99812.75
2022-08-18T22:46:30.271Z,99817.59
2022-08-18T22:48:56.703Z,99812.16
2022-08-18T22:51:25.482Z,99824.53
2022-08-18T22:53:52.370Z,99825.34
2022-08-18T22:56:24.607Z,99829.28
2022-08-18T22:59:00.833Z,99837.94
2022-08-18T23:01:37.949Z,99844.63
2022-08-18T23:04:05.655Z,99841.25
2022-08-18T23:06:32.108Z,99848.97
2022-08-18T23:09:00.539Z,99842.34
2022-08-18T23:11:28.864Z,99841.47
2022-08-18T23:13:56.273Z,99838.53
2022-08-18T23:16:31.405Z,99843.69
2022-08-18T23:19:03.389Z,99838.81
2022-08-18T23:21:35.181Z,99841.09
2022-08-18T23:24:04.560Z,99841.53
2022-08-18T23:26:30.995Z,99834.72
2022-08-18T23:28:57.566Z,99836.63
2022-08-18T23:31:24.053Z,99830.22
2022-08-18T23:33:50.504Z,99834.69
2022-08-18T23:36:17.679Z,99831.94
2022-08-18T23:38:44.689Z,99825.13
2022-08-18T23:41:12.930Z,99832.47
2022-08-18T23:43:39.443Z,99829.16
2022-08-18T23:46:05.956Z,99824.34
2022-08-18T23:48:32.456Z,99825.28
2022-08-18T23:51:03.094Z,99831.22
2022-08-18T23:53:31.134Z,99828.44
2022-08-18T23:55:57.733Z,99827.94
2022-08-18T23:58:24.310Z,99832.06
